sensor_id;sensor_type;location;lat;lon;timestamp;temperature;humidity
19039;DHT22;9652;49.014;12.052;2022-08-03T00:00:58;23.50;50.40
19039;DHT22;9652;49.014;12.052;2022-08-03T00:03:25;23.50;50.50
19039;DHT22;9652;49.014;12.052;2022-08-03T00:05:52;23.40;50.50
19039;DHT22;9652;49.014;12.052;2022-08-03T00:08:20;23.40;50.60
19039;DHT22;9652;49.014;12.052;2022-08-03T00:10:47;23.40;50.70
19039;DHT22;9652;49.014;12.052;2022-08-03T00:13:15;23.30;50.60
19039;DHT22;9652;49.014;12.052;2022-08-03T00:15:44;23.30;50.90
19039;DHT22;9652;49.014;12.052;2022-08-03T00:18:11;23.30;50.80
19039;DHT22;9652;49.014;12.052;2022-08-03T00:20:38;23.20;50.90
19039;DHT22;9652;49.014;12.052;2022-08-03T00:23:05;23.30;51.10
19039;DHT22;9652;49.014;12.052;2022-08-03T00:25:33;23.20;51.10
19039;DHT22;9652;49.014;12.052;2022-08-03T00:28:01;23.20;51.30
19039;DHT22;9652;49.014;12.052;2022-08-03T00:30:29;23.10;51.30
19039;DHT22;9652;49.014;12.052;2022-08-03T00:32:57;23.10;51.50
19039;DHT22;9652;49.014;12.052;2022-08-03T00:35:25;23.10;51.30
19039;DHT22;9652;49.014;12.052;2022-08-03T00:37:52;23.00;51.40
19039;DHT22;9652;49.014;12.052;2022-08-03T00:40:19;23.10;51.50
19039;DHT22;9652;49.014;12.052;2022-08-03T00:42:49;23.00;51.60
19039;DHT22;9652;49.014;12.052;2022-08-03T00:45:18;23.00;51.80
19039;DHT22;9652;49.014;12.052;2022-08-03T00:47:48;22.90;51.70
19039;DHT22;9652;49.014;12.052;2022-08-03T00:50:16;22.80;51.90
19039;DHT22;9652;49.014;12.052;2022-08-03T00:52:45;22.90;52.00
19039;DHT22;9652;49.014;12.052;2022-08-03T00:55:13;22.80;52.10
19039;DHT22;9652;49.014;12.052;2022-08-03T00:57:42;22.90;52.20
19039;DHT22;9652;49.014;12.052;2022-08-03T01:00:11;22.90;52.20
19039;DHT22;9652;49.014;12.052;2022-08-03T01:02:41;22.80;52.30
19039;DHT22;9652;49.014;12.052;2022-08-03T01:05:10;22.90;52.30
19039;DHT22;9652;49.014;12.052;2022-08-03T01:07:45;22.90;52.50
19039;DHT22;9652;49.014;12.052;2022-08-03T01:10:34;22.90;52.80
19039;DHT22;9652;49.014;12.052;2022-08-03T01:13:15;22.90;52.80
19039;DHT22;9652;49.014;12.052;2022-08-03T01:15:55;22.80;52.70
19039;DHT22;9652;49.014;12.052;2022-08-03T01:18:34;22.80;52.70
19039;DHT22;9652;49.014;12.052;2022-08-03T01:21:09;22.80;52.70
19039;DHT22;9652;49.014;12.052;2022-08-03T01:23:59;22.80;52.90
19039;DHT22;9652;49.014;12.052;2022-08-03T01:26:47;22.80;53.30
19039;DHT22;9652;49.014;12.052;2022-08-03T01:29:58;22.80;53.30
19039;DHT22;9652;49.014;12.052;2022-08-03T01:32:41;22.80;53.40
19039;DHT22;9652;49.014;12.052;2022-08-03T01:35:16;22.70;53.20
19039;DHT22;9652;49.014;12.052;2022-08-03T01:37:50;22.70;52.90
19039;DHT22;9652;49.014;12.052;2022-08-03T01:40:24;22.70;53.00
19039;DHT22;9652;49.014;12.052;2022-08-03T01:42:55;22.70;53.00
19039;DHT22;9652;49.014;12.052;2022-08-03T01:45:27;22.70;53.10
19039;DHT22;9652;49.014;12.052;2022-08-03T01:47:56;22.60;53.20
19039;DHT22;9652;49.014;12.052;2022-08-03T01:50:27;22.60;53.20
19039;DHT22;9652;49.014;12.052;2022-08-03T01:52:57;22.50;53.30
19039;DHT22;9652;49.014;12.052;2022-08-03T01:55:25;22.50;53.30
19039;DHT22;9652;49.014;12.052;2022-08-03T01:57:55;22.50;53.40
19039;DHT22;9652;49.014;12.052;2022-08-03T02:00:25;22.50;53.50
19039;DHT22;9652;49.014;12.052;2022-08-03T02:02:53;22.50;53.50
19039;DHT22;9652;49.014;12.052;2022-08-03T02:05:22;22.40;53.50
19039;DHT22;9652;49.014;12.052;2022-08-03T02:07:51;22.40;53.60
19039;DHT22;9652;49.014;12.052;2022-08-03T02:10:21;22.40;53.60
19039;DHT22;9652;49.014;12.052;2022-08-03T02:12:50;22.30;53.80
19039;DHT22;9652;49.014;12.052;2022-08-03T02:15:19;22.30;53.80
19039;DHT22;9652;49.014;12.052;2022-08-03T02:17:50;22.30;53.90
19039;DHT22;9652;49.014;12.052;2022-08-03T02:20:20;22.30;54.10
19039;DHT22;9652;49.014;12.052;2022-08-03T02:22:47;22.20;54.00
19039;DHT22;9652;49.014;12.052;2022-08-03T02:25:15;22.20;54.10
19039;DHT22;9652;49.014;12.052;2022-08-03T02:27:47;22.20;54.10
19039;DHT22;9652;49.014;12.052;2022-08-03T02:30:18;22.20;54.40
19039;DHT22;9652;49.014;12.052;2022-08-03T02:32:53;22.10;54.20
19039;DHT22;9652;49.014;12.052;2022-08-03T02:35:23;22.10;54.60
19039;DHT22;9652;49.014;12.052;2022-08-03T02:37:58;22.00;54.40
19039;DHT22;9652;49.014;12.052;2022-08-03T02:40:29;22.20;54.70
19039;DHT22;9652;49.014;12.052;2022-08-03T02:42:59;22.00;54.50
19039;DHT22;9652;49.014;12.052;2022-08-03T02:45:31;22.00;54.60
19039;DHT22;9652;49.014;12.052;2022-08-03T02:48:04;22.00;54.60
19039;DHT22;9652;49.014;12.052;2022-08-03T02:50:33;21.90;54.80
19039;DHT22;9652;49.014;12.052;2022-08-03T02:53:02;21.90;54.70
19039;DHT22;9652;49.014;12.052;2022-08-03T02:55:33;21.80;54.70
19039;DHT22;9652;49.014;12.052;2022-08-03T02:58:02;21.80;54.90
19039;DHT22;9652;49.014;12.052;2022-08-03T03:00:30;21.80;54.80
19039;DHT22;9652;49.014;12.052;2022-08-03T03:03:00;21.80;54.90
19039;DHT22;9652;49.014;12.052;2022-08-03T03:05:30;21.70;55.00
19039;DHT22;9652;49.014;12.052;2022-08-03T03:07:57;21.70;55.00
19039;DHT22;9652;49.014;12.052;2022-08-03T03:10:25;21.70;55.00
19039;DHT22;9652;49.014;12.052;2022-08-03T03:12:55;21.60;55.00
19039;DHT22;9652;49.014;12.052;2022-08-03T03:15:25;21.60;55.20
19039;DHT22;9652;49.014;12.052;2022-08-03T03:17:54;21.60;55.20
19039;DHT22;9652;49.014;12.052;2022-08-03T03:20:24;21.50;55.10
19039;DHT22;9652;49.014;12.052;2022-08-03T03:22:53;21.60;55.90
19039;DHT22;9652;49.014;12.052;2022-08-03T03:25:22;21.60;55.30
19039;DHT22;9652;49.014;12.052;2022-08-03T03:27:50;21.50;55.30
19039;DHT22;9652;49.014;12.052;2022-08-03T03:30:17;21.50;55.30
19039;DHT22;9652;49.014;12.052;2022-08-03T03:32:44;21.50;55.30
19039;DHT22;9652;49.014;12.052;2022-08-03T03:35:13;21.50;55.50
19039;DHT22;9652;49.014;12.052;2022-08-03T03:37:42;21.40;55.50
19039;DHT22;9652;49.014;12.052;2022-08-03T03:40:10;21.40;56.20
19039;DHT22;9652;49.014;12.052;2022-08-03T03:42:38;21.40;55.60
19039;DHT22;9652;49.014;12.052;2022-08-03T03:45:06;21.40;55.60
19039;DHT22;9652;49.014;12.052;2022-08-03T03:47:35;21.30;55.60
19039;DHT22;9652;49.014;12.052;2022-08-03T03:50:03;21.50;55.70
19039;DHT22;9652;49.014;12.052;2022-08-03T03:52:32;21.30;55.70
19039;DHT22;9652;49.014;12.052;2022-08-03T03:55:00;21.30;55.80
19039;DHT22;9652;49.014;12.052;2022-08-03T03:57:28;21.30;55.90
19039;DHT22;9652;49.014;12.052;2022-08-03T03:59:55;21.30;55.90
19039;DHT22;9652;49.014;12.052;2022-08-03T04:02:22;21.20;55.90
19039;DHT22;9652;49.014;12.052;2022-08-03T04:04:49;21.20;55.90
19039;DHT22;9652;49.014;12.052;2022-08-03T04:07:57;21.20;56.00
19039;DHT22;9652;49.014;12.052;2022-08-03T04:10:47;21.20;56.20
19039;DHT22;9652;49.014;12.052;2022-08-03T04:13:30;21.20;56.10
19039;DHT22;9652;49.014;12.052;2022-08-03T04:16:01;21.20;56.20
19039;DHT22;9652;49.014;12.052;2022-08-03T04:18:31;21.20;56.10
19039;DHT22;9652;49.014;12.052;2022-08-03T04:21:02;21.20;56.30
19039;DHT22;9652;49.014;12.052;2022-08-03T04:23:34;21.20;56.30
19039;DHT22;9652;49.014;12.052;2022-08-03T04:26:08;21.30;56.40
19039;DHT22;9652;49.014;12.052;2022-08-03T04:28:38;21.20;56.50
19039;DHT22;9652;49.014;12.052;2022-08-03T04:31:09;21.30;56.50
19039;DHT22;9652;49.014;12.052;2022-08-03T04:33:37;21.30;56.50
19039;DHT22;9652;49.014;12.052;2022-08-03T04:36:07;21.30;56.60
19039;DHT22;9652;49.014;12.052;2022-08-03T04:38:38;21.20;56.60
19039;DHT22;9652;49.014;12.052;2022-08-03T04:41:12;21.30;56.60
19039;DHT22;9652;49.014;12.052;2022-08-03T04:43:39;21.40;56.70
19039;DHT22;9652;49.014;12.052;2022-08-03T04:46:08;21.40;56.60
19039;DHT22;9652;49.014;12.052;2022-08-03T04:48:36;21.40;56.70
19039;DHT22;9652;49.014;12.052;2022-08-03T04:51:04;21.50;56.80
19039;DHT22;9652;49.014;12.052;2022-08-03T04:53:31;21.50;56.80
19039;DHT22;9652;49.014;12.052;2022-08-03T04:56:03;21.60;56.90
19039;DHT22;9652;49.014;12.052;2022-08-03T04:58:32;21.60;57.10
19039;DHT22;9652;49.014;12.052;2022-08-03T05:00:59;21.70;57.00
19039;DHT22;9652;49.014;12.052;2022-08-03T05:03:26;21.90;57.10
19039;DHT22;9652;49.014;12.052;2022-08-03T05:05:54;21.80;57.00
19039;DHT22;9652;49.014;12.052;2022-08-03T05:08:21;21.80;57.00
19039;DHT22;9652;49.014;12.052;2022-08-03T05:10:49;21.90;57.10
19039;DHT22;9652;49.014;12.052;2022-08-03T05:13:16;22.00;57.10
19039;DHT22;9652;49.014;12.052;2022-08-03T05:15:44;22.10;57.10
19039;DHT22;9652;49.014;12.052;2022-08-03T05:18:11;22.20;57.30
19039;DHT22;9652;49.014;12.052;2022-08-03T05:20:38;22.20;57.10
19039;DHT22;9652;49.014;12.052;2022-08-03T05:23:05;22.30;57.20
19039;DHT22;9652;49.014;12.052;2022-08-03T05:25:32;22.40;57.30
19039;DHT22;9652;49.014;12.052;2022-08-03T05:27:59;22.50;57.20
19039;DHT22;9652;49.014;12.052;2022-08-03T05:30:26;22.60;57.20
19039;DHT22;9652;49.014;12.052;2022-08-03T05:32:55;22.70;57.20
19039;DHT22;9652;49.014;12.052;2022-08-03T05:35:22;22.90;57.20
19039;DHT22;9652;49.014;12.052;2022-08-03T05:37:51;22.90;57.10
19039;DHT22;9652;49.014;12.052;2022-08-03T05:40:18;23.00;57.00
19039;DHT22;9652;49.014;12.052;2022-08-03T05:42:45;23.10;57.00
19039;DHT22;9652;49.014;12.052;2022-08-03T05:45:12;23.20;56.90
19039;DHT22;9652;49.014;12.052;2022-08-03T05:47:41;23.30;56.80
19039;DHT22;9652;49.014;12.052;2022-08-03T05:50:10;23.40;56.80
19039;DHT22;9652;49.014;12.052;2022-08-03T05:52:37;23.50;56.70
19039;DHT22;9652;49.014;12.052;2022-08-03T05:55:05;23.50;56.50
19039;DHT22;9652;49.014;12.052;2022-08-03T05:57:34;23.70;56.50
19039;DHT22;9652;49.014;12.052;2022-08-03T06:00:01;23.80;56.30
19039;DHT22;9652;49.014;12.052;2022-08-03T06:02:37;23.80;56.20
19039;DHT22;9652;49.014;12.052;2022-08-03T06:05:05;24.10;56.20
19039;DHT22;9652;49.014;12.052;2022-08-03T06:07:34;24.00;56.00
19039;DHT22;9652;49.014;12.052;2022-08-03T06:10:02;24.10;55.80
19039;DHT22;9652;49.014;12.052;2022-08-03T06:12:30;24.20;55.70
19039;DHT22;9652;49.014;12.052;2022-08-03T06:15:00;24.30;55.70
19039;DHT22;9652;49.014;12.052;2022-08-03T06:17:29;24.40;55.60
19039;DHT22;9652;49.014;12.052;2022-08-03T06:19:56;24.40;55.50
19039;DHT22;9652;49.014;12.052;2022-08-03T06:22:23;24.50;55.40
19039;DHT22;9652;49.014;12.052;2022-08-03T06:24:51;24.70;55.30
19039;DHT22;9652;49.014;12.052;2022-08-03T06:27:18;24.70;55.20
19039;DHT22;9652;49.014;12.052;2022-08-03T06:29:45;24.70;55.00
19039;DHT22;9652;49.014;12.052;2022-08-03T06:32:12;24.80;55.00
19039;DHT22;9652;49.014;12.052;2022-08-03T06:34:39;24.90;54.80
19039;DHT22;9652;49.014;12.052;2022-08-03T06:37:06;25.00;54.70
19039;DHT22;9652;49.014;12.052;2022-08-03T06:39:33;25.10;54.60
19039;DHT22;9652;49.014;12.052;2022-08-03T06:42:02;25.20;54.60
19039;DHT22;9652;49.014;12.052;2022-08-03T06:44:29;25.20;54.50
19039;DHT22;9652;49.014;12.052;2022-08-03T06:46:56;25.50;54.50
19039;DHT22;9652;49.014;12.052;2022-08-03T06:49:24;25.40;54.30
19039;DHT22;9652;49.014;12.052;2022-08-03T06:51:51;25.60;54.30
19039;DHT22;9652;49.014;12.052;2022-08-03T06:54:18;25.50;54.10
19039;DHT22;9652;49.014;12.052;2022-08-03T06:56:49;25.60;54.00
19039;DHT22;9652;49.014;12.052;2022-08-03T06:59:17;25.80;53.90
19039;DHT22;9652;49.014;12.052;2022-08-03T07:01:44;25.70;53.60
19039;DHT22;9652;49.014;12.052;2022-08-03T07:04:11;25.80;53.60
19039;DHT22;9652;49.014;12.052;2022-08-03T07:06:39;26.00;53.60
19039;DHT22;9652;49.014;12.052;2022-08-03T07:09:06;26.00;53.40
19039;DHT22;9652;49.014;12.052;2022-08-03T07:11:33;26.10;53.30
19039;DHT22;9652;49.014;12.052;2022-08-03T07:14:00;26.10;53.20
19039;DHT22;9652;49.014;12.052;2022-08-03T07:16:28;26.20;53.00
19039;DHT22;9652;49.014;12.052;2022-08-03T07:18:55;26.30;52.80
19039;DHT22;9652;49.014;12.052;2022-08-03T07:21:22;26.30;52.70
19039;DHT22;9652;49.014;12.052;2022-08-03T07:23:49;26.40;52.70
19039;DHT22;9652;49.014;12.052;2022-08-03T07:26:16;26.50;52.60
19039;DHT22;9652;49.014;12.052;2022-08-03T07:28:43;26.60;52.50
19039;DHT22;9652;49.014;12.052;2022-08-03T07:31:10;26.70;52.40
19039;DHT22;9652;49.014;12.052;2022-08-03T07:33:39;26.70;52.30
19039;DHT22;9652;49.014;12.052;2022-08-03T07:36:06;26.80;52.10
19039;DHT22;9652;49.014;12.052;2022-08-03T07:38:34;26.90;52.20
19039;DHT22;9652;49.014;12.052;2022-08-03T07:41:01;27.00;52.00
19039;DHT22;9652;49.014;12.052;2022-08-03T07:43:29;27.10;51.90
19039;DHT22;9652;49.014;12.052;2022-08-03T07:45:56;27.10;51.80
19039;DHT22;9652;49.014;12.052;2022-08-03T07:48:23;27.30;51.70
19039;DHT22;9652;49.014;12.052;2022-08-03T07:50:51;27.30;51.40
19039;DHT22;9652;49.014;12.052;2022-08-03T07:53:18;27.40;51.30
19039;DHT22;9652;49.014;12.052;2022-08-03T07:55:46;27.50;51.30
19039;DHT22;9652;49.014;12.052;2022-08-03T07:58:13;27.60;51.10
19039;DHT22;9652;49.014;12.052;2022-08-03T08:00:42;27.70;51.00
19039;DHT22;9652;49.014;12.052;2022-08-03T08:03:10;27.70;50.80
19039;DHT22;9652;49.014;12.052;2022-08-03T08:05:38;27.80;50.60
19039;DHT22;9652;49.014;12.052;2022-08-03T08:08:06;27.90;50.50
19039;DHT22;9652;49.014;12.052;2022-08-03T08:10:34;28.00;50.30
19039;DHT22;9652;49.014;12.052;2022-08-03T08:13:02;28.10;50.30
19039;DHT22;9652;49.014;12.052;2022-08-03T08:15:30;28.20;50.30
19039;DHT22;9652;49.014;12.052;2022-08-03T08:17:58;28.20;50.10
19039;DHT22;9652;49.014;12.052;2022-08-03T08:20:29;28.40;49.90
19039;DHT22;9652;49.014;12.052;2022-08-03T08:22:59;28.40;49.80
19039;DHT22;9652;49.014;12.052;2022-08-03T08:25:29;28.50;49.60
19039;DHT22;9652;49.014;12.052;2022-08-03T08:27:57;28.60;49.30
19039;DHT22;9652;49.014;12.052;2022-08-03T08:30:26;28.70;49.20
19039;DHT22;9652;49.014;12.052;2022-08-03T08:32:53;28.70;48.90
19039;DHT22;9652;49.014;12.052;2022-08-03T08:35:20;28.80;48.80
19039;DHT22;9652;49.014;12.052;2022-08-03T08:37:47;28.90;48.80
19039;DHT22;9652;49.014;12.052;2022-08-03T08:40:15;28.90;48.60
19039;DHT22;9652;49.014;12.052;2022-08-03T08:42:44;29.10;48.60
19039;DHT22;9652;49.014;12.052;2022-08-03T08:45:12;29.10;48.30
19039;DHT22;9652;49.014;12.052;2022-08-03T08:47:44;29.30;48.30
19039;DHT22;9652;49.014;12.052;2022-08-03T08:50:12;29.40;47.80
19039;DHT22;9652;49.014;12.052;2022-08-03T08:52:45;29.40;47.70
19039;DHT22;9652;49.014;12.052;2022-08-03T08:55:14;29.50;47.50
19039;DHT22;9652;49.014;12.052;2022-08-03T08:57:49;29.60;47.30
19039;DHT22;9652;49.014;12.052;2022-08-03T09:00:18;29.70;47.10
19039;DHT22;9652;49.014;12.052;2022-08-03T09:02:45;29.70;46.90
19039;DHT22;9652;49.014;12.052;2022-08-03T09:05:13;29.80;46.80
19039;DHT22;9652;49.014;12.052;2022-08-03T09:07:43;29.90;46.60
19039;DHT22;9652;49.014;12.052;2022-08-03T09:10:12;30.00;46.60
19039;DHT22;9652;49.014;12.052;2022-08-03T09:12:45;30.00;46.40
19039;DHT22;9652;49.014;12.052;2022-08-03T09:15:20;30.10;46.10
19039;DHT22;9652;49.014;12.052;2022-08-03T09:17:50;30.20;45.50
19039;DHT22;9652;49.014;12.052;2022-08-03T09:20:19;30.30;45.80
19039;DHT22;9652;49.014;12.052;2022-08-03T09:22:52;30.30;45.40
19039;DHT22;9652;49.014;12.052;2022-08-03T09:25:27;30.40;45.10
19039;DHT22;9652;49.014;12.052;2022-08-03T09:28:04;30.50;45.00
19039;DHT22;9652;49.014;12.052;2022-08-03T09:30:38;30.60;44.50
19039;DHT22;9652;49.014;12.052;2022-08-03T09:33:08;30.70;44.70
19039;DHT22;9652;49.014;12.052;2022-08-03T09:35:40;30.80;44.50
19039;DHT22;9652;49.014;12.052;2022-08-03T09:38:09;30.80;44.20
19039;DHT22;9652;49.014;12.052;2022-08-03T09:40:38;30.80;44.10
19039;DHT22;9652;49.014;12.052;2022-08-03T09:43:06;30.90;43.90
19039;DHT22;9652;49.014;12.052;2022-08-03T09:45:34;31.00;43.90
19039;DHT22;9652;49.014;12.052;2022-08-03T09:50:59;31.10;43.80
19039;DHT22;9652;49.014;12.052;2022-08-03T09:53:28;31.20;43.30
19039;DHT22;9652;49.014;12.052;2022-08-03T09:55:56;31.30;43.30
19039;DHT22;9652;49.014;12.052;2022-08-03T09:58:26;31.30;42.90
19039;DHT22;9652;49.014;12.052;2022-08-03T10:00:55;31.40;42.60
19039;DHT22;9652;49.014;12.052;2022-08-03T10:03:26;31.40;42.30
19039;DHT22;9652;49.014;12.052;2022-08-03T10:05:55;31.50;42.20
19039;DHT22;9652;49.014;12.052;2022-08-03T10:08:23;31.50;42.00
19039;DHT22;9652;49.014;12.052;2022-08-03T10:10:51;31.60;42.00
19039;DHT22;9652;49.014;12.052;2022-08-03T10:13:20;31.60;41.90
19039;DHT22;9652;49.014;12.052;2022-08-03T10:15:49;31.70;41.70
19039;DHT22;9652;49.014;12.052;2022-08-03T10:18:16;31.80;41.40
19039;DHT22;9652;49.014;12.052;2022-08-03T10:20:45;31.90;41.10
19039;DHT22;9652;49.014;12.052;2022-08-03T10:23:17;31.90;40.80
19039;DHT22;9652;49.014;12.052;2022-08-03T10:25:49;32.00;40.80
19039;DHT22;9652;49.014;12.052;2022-08-03T10:28:20;32.10;40.50
19039;DHT22;9652;49.014;12.052;2022-08-03T10:30:50;32.10;40.80
19039;DHT22;9652;49.014;12.052;2022-08-03T10:33:20;32.20;40.40
19039;DHT22;9652;49.014;12.052;2022-08-03T10:35:52;32.30;40.10
19039;DHT22;9652;49.014;12.052;2022-08-03T10:38:34;32.40;39.90
19039;DHT22;9652;49.014;12.052;2022-08-03T10:41:05;32.40;39.60
19039;DHT22;9652;49.014;12.052;2022-08-03T10:43:39;32.50;39.60
19039;DHT22;9652;49.014;12.052;2022-08-03T10:46:14;32.50;39.30
19039;DHT22;9652;49.014;12.052;2022-08-03T10:48:45;32.60;39.20
19039;DHT22;9652;49.014;12.052;2022-08-03T10:51:14;32.60;38.90
19039;DHT22;9652;49.014;12.052;2022-08-03T10:53:42;32.70;38.90
19039;DHT22;9652;49.014;12.052;2022-08-03T10:56:38;32.70;39.10
19039;DHT22;9652;49.014;12.052;2022-08-03T10:59:57;32.70;38.80
19039;DHT22;9652;49.014;12.052;2022-08-03T11:03:05;32.90;38.80
19039;DHT22;9652;49.014;12.052;2022-08-03T11:05:37;32.90;38.50
19039;DHT22;9652;49.014;12.052;2022-08-03T11:08:33;33.00;38.60
19039;DHT22;9652;49.014;12.052;2022-08-03T11:11:02;33.10;38.20
19039;DHT22;9652;49.014;12.052;2022-08-03T11:13:59;33.10;38.40
19039;DHT22;9652;49.014;12.052;2022-08-03T11:16:30;33.20;38.00
19039;DHT22;9652;49.014;12.052;2022-08-03T11:19:03;33.20;38.30
19039;DHT22;9652;49.014;12.052;2022-08-03T11:21:54;33.30;38.00
19039;DHT22;9652;49.014;12.052;2022-08-03T11:24:57;33.30;37.20
19039;DHT22;9652;49.014;12.052;2022-08-03T11:27:26;33.40;37.40
19039;DHT22;9652;49.014;12.052;2022-08-03T11:29:58;33.40;37.80
19039;DHT22;9652;49.014;12.052;2022-08-03T11:32:58;33.50;37.60
19039;DHT22;9652;49.014;12.052;2022-08-03T11:35:28;33.50;37.20
19039;DHT22;9652;49.014;12.052;2022-08-03T11:38:07;33.60;37.50
19039;DHT22;9652;49.014;12.052;2022-08-03T11:40:38;33.60;37.10
19039;DHT22;9652;49.014;12.052;2022-08-03T11:43:08;33.60;37.20
19039;DHT22;9652;49.014;12.052;2022-08-03T11:45:37;33.70;37.00
19039;DHT22;9652;49.014;12.052;2022-08-03T11:48:15;33.70;36.70
19039;DHT22;9652;49.014;12.052;2022-08-03T11:50:43;33.80;36.00
19039;DHT22;9652;49.014;12.052;2022-08-03T11:53:15;33.80;36.20
19039;DHT22;9652;49.014;12.052;2022-08-03T11:55:45;33.90;35.80
19039;DHT22;9652;49.014;12.052;2022-08-03T11:58:15;33.90;35.80
19039;DHT22;9652;49.014;12.052;2022-08-03T12:00:47;33.90;35.60
19039;DHT22;9652;49.014;12.052;2022-08-03T12:03:17;33.90;35.10
19039;DHT22;9652;49.014;12.052;2022-08-03T12:05:46;33.90;35.20
19039;DHT22;9652;49.014;12.052;2022-08-03T12:08:16;33.90;35.30
19039;DHT22;9652;49.014;12.052;2022-08-03T12:10:49;34.00;35.00
19039;DHT22;9652;49.014;12.052;2022-08-03T12:13:17;34.00;34.50
19039;DHT22;9652;49.014;12.052;2022-08-03T12:15:51;34.00;34.50
19039;DHT22;9652;49.014;12.052;2022-08-03T12:18:21;34.00;33.90
19039;DHT22;9652;49.014;12.052;2022-08-03T12:20:50;34.10;34.80
19039;DHT22;9652;49.014;12.052;2022-08-03T12:23:19;34.20;34.00
19039;DHT22;9652;49.014;12.052;2022-08-03T12:25:46;34.20;33.80
19039;DHT22;9652;49.014;12.052;2022-08-03T12:28:18;34.20;33.30
19039;DHT22;9652;49.014;12.052;2022-08-03T12:30:51;34.30;33.10
19039;DHT22;9652;49.014;12.052;2022-08-03T12:33:21;34.30;33.30
19039;DHT22;9652;49.014;12.052;2022-08-03T12:36:00;34.40;32.90
19039;DHT22;9652;49.014;12.052;2022-08-03T12:38:30;34.40;32.90
19039;DHT22;9652;49.014;12.052;2022-08-03T12:41:00;34.50;32.90
19039;DHT22;9652;49.014;12.052;2022-08-03T12:43:28;34.60;32.50
19039;DHT22;9652;49.014;12.052;2022-08-03T12:46:11;34.70;32.60
19039;DHT22;9652;49.014;12.052;2022-08-03T12:48:59;34.70;32.00
19039;DHT22;9652;49.014;12.052;2022-08-03T12:51:28;34.80;32.10
19039;DHT22;9652;49.014;12.052;2022-08-03T12:53:57;34.90;32.30
19039;DHT22;9652;49.014;12.052;2022-08-03T12:56:25;35.00;32.10
19039;DHT22;9652;49.014;12.052;2022-08-03T12:58:52;35.10;31.90
19039;DHT22;9652;49.014;12.052;2022-08-03T13:01:21;35.10;31.80
19039;DHT22;9652;49.014;12.052;2022-08-03T13:03:50;35.20;31.70
19039;DHT22;9652;49.014;12.052;2022-08-03T13:06:20;35.30;31.70
19039;DHT22;9652;49.014;12.052;2022-08-03T13:09:01;35.40;31.50
19039;DHT22;9652;49.014;12.052;2022-08-03T13:11:30;35.50;30.90
19039;DHT22;9652;49.014;12.052;2022-08-03T13:13:57;35.60;31.20
19039;DHT22;9652;49.014;12.052;2022-08-03T13:16:25;35.70;31.00
19039;DHT22;9652;49.014;12.052;2022-08-03T13:18:52;35.70;30.70
19039;DHT22;9652;49.014;12.052;2022-08-03T13:21:20;35.80;30.60
19039;DHT22;9652;49.014;12.052;2022-08-03T13:23:47;35.80;30.60
19039;DHT22;9652;49.014;12.052;2022-08-03T13:26:15;36.00;30.50
19039;DHT22;9652;49.014;12.052;2022-08-03T13:28:42;36.10;30.60
19039;DHT22;9652;49.014;12.052;2022-08-03T13:31:09;36.30;30.50
19039;DHT22;9652;49.014;12.052;2022-08-03T13:33:37;36.50;30.80
19039;DHT22;9652;49.014;12.052;2022-08-03T13:36:06;36.90;30.60
19039;DHT22;9652;49.014;12.052;2022-08-03T13:38:33;37.40;30.30
19039;DHT22;9652;49.014;12.052;2022-08-03T13:41:01;37.70;30.10
19039;DHT22;9652;49.014;12.052;2022-08-03T13:43:29;38.10;29.90
19039;DHT22;9652;49.014;12.052;2022-08-03T13:45:56;38.40;29.90
19039;DHT22;9652;49.014;12.052;2022-08-03T13:48:23;38.80;29.50
19039;DHT22;9652;49.014;12.052;2022-08-03T13:50:52;39.10;29.20
19039;DHT22;9652;49.014;12.052;2022-08-03T13:53:19;39.40;28.90
19039;DHT22;9652;49.014;12.052;2022-08-03T13:55:46;39.60;28.80
19039;DHT22;9652;49.014;12.052;2022-08-03T13:58:13;40.00;28.60
19039;DHT22;9652;49.014;12.052;2022-08-03T14:00:40;40.20;28.20
19039;DHT22;9652;49.014;12.052;2022-08-03T14:03:07;40.50;27.90
19039;DHT22;9652;49.014;12.052;2022-08-03T14:05:35;40.80;27.70
19039;DHT22;9652;49.014;12.052;2022-08-03T14:08:05;41.00;27.30
19039;DHT22;9652;49.014;12.052;2022-08-03T14:10:36;41.30;27.20
19039;DHT22;9652;49.014;12.052;2022-08-03T14:13:05;41.50;26.50
19039;DHT22;9652;49.014;12.052;2022-08-03T14:15:33;41.70;26.50
19039;DHT22;9652;49.014;12.052;2022-08-03T14:18:00;41.80;26.10
19039;DHT22;9652;49.014;12.052;2022-08-03T14:20:28;41.90;25.20
19039;DHT22;9652;49.014;12.052;2022-08-03T14:22:55;41.90;25.00
19039;DHT22;9652;49.014;12.052;2022-08-03T14:25:23;41.90;25.10
19039;DHT22;9652;49.014;12.052;2022-08-03T14:27:51;41.90;25.20
19039;DHT22;9652;49.014;12.052;2022-08-03T14:30:18;41.90;25.20
19039;DHT22;9652;49.014;12.052;2022-08-03T14:32:45;42.00;25.20
19039;DHT22;9652;49.014;12.052;2022-08-03T14:35:12;42.00;25.10
19039;DHT22;9652;49.014;12.052;2022-08-03T14:37:39;42.20;25.20
19039;DHT22;9652;49.014;12.052;2022-08-03T14:40:07;42.30;25.20
19039;DHT22;9652;49.014;12.052;2022-08-03T14:42:36;42.40;25.00
19039;DHT22;9652;49.014;12.052;2022-08-03T14:45:03;42.60;25.00
19039;DHT22;9652;49.014;12.052;2022-08-03T14:47:31;42.80;24.90
19039;DHT22;9652;49.014;12.052;2022-08-03T14:49:58;43.00;24.60
19039;DHT22;9652;49.014;12.052;2022-08-03T14:52:26;43.20;24.50
19039;DHT22;9652;49.014;12.052;2022-08-03T14:54:53;43.40;24.30
19039;DHT22;9652;49.014;12.052;2022-08-03T14:57:21;43.50;24.30
19039;DHT22;9652;49.014;12.052;2022-08-03T14:59:49;43.70;24.20
19039;DHT22;9652;49.014;12.052;2022-08-03T15:02:16;43.90;24.10
19039;DHT22;9652;49.014;12.052;2022-08-03T15:04:44;44.00;24.00
19039;DHT22;9652;49.014;12.052;2022-08-03T15:07:11;44.40;24.00
19039;DHT22;9652;49.014;12.052;2022-08-03T15:09:38;44.40;23.80
19039;DHT22;9652;49.014;12.052;2022-08-03T15:12:05;44.60;23.70
19039;DHT22;9652;49.014;12.052;2022-08-03T15:14:33;44.80;23.50
19039;DHT22;9652;49.014;12.052;2022-08-03T15:17:01;45.00;23.30
19039;DHT22;9652;49.014;12.052;2022-08-03T15:19:28;45.10;23.20
19039;DHT22;9652;49.014;12.052;2022-08-03T15:21:55;45.20;23.20
19039;DHT22;9652;49.014;12.052;2022-08-03T15:24:22;45.30;23.00
19039;DHT22;9652;49.014;12.052;2022-08-03T15:26:50;45.20;22.70
19039;DHT22;9652;49.014;12.052;2022-08-03T15:29:17;45.30;22.80
19039;DHT22;9652;49.014;12.052;2022-08-03T15:31:44;45.30;22.80
19039;DHT22;9652;49.014;12.052;2022-08-03T15:34:13;45.40;22.80
19039;DHT22;9652;49.014;12.052;2022-08-03T15:36:40;45.50;22.70
19039;DHT22;9652;49.014;12.052;2022-08-03T15:39:07;45.60;22.60
19039;DHT22;9652;49.014;12.052;2022-08-03T15:41:34;45.70;22.30
19039;DHT22;9652;49.014;12.052;2022-08-03T15:44:02;45.70;22.30
19039;DHT22;9652;49.014;12.052;2022-08-03T15:46:29;45.80;22.20
19039;DHT22;9652;49.014;12.052;2022-08-03T15:48:56;45.80;22.00
19039;DHT22;9652;49.014;12.052;2022-08-03T15:51:24;45.80;21.90